Crete, North Dakota
Current Conditions -  °F | °C
As of 2:55 PM on Thursday 23 Oct 2014 (Local Time) from KGWR Reporting Station
Clear Clear  
Wind Chill: 70°   Ceiling: Unl
Heat Index: 70°   Visibility: 10mi
Dew Point: 45°   Wind: 17mph
Humidity: 40%   Direction: 200°SSW
Pressure: 29.87"   Gusts: NA
Location:  46.2395°N, 97.8821°W
Report Text: KGWR 231955Z AUTO 20015KT 10SM CLR 21/07 A2987 RMK A01 P000
Loading
Personal Weather Stations






























Interactive Weather Map
Tropical Storm Tracking
New forecast layout! Learn more

10-Day Weather Forecast

Advertisements
Track Severe Weather on mobile